Time;durP1;ratioP1;P1;durP2;ratioP2;P2;SDS_P1;SDS_P2;PMS_P1;PMS_P2;Temp;Humidity;BMP_temperature;BMP_pressure;BME280_temperature;BME280_humidity;BME280_pressure;Samples;Min_cycle;Max_cycle;Signal;HPM_P1;HPM_P2
2023/05/15 00:01:20;;;;;;;0.52;0.52;;;11.50;92.80;;;;;;5051598;28;20653;-81
2023/05/15 00:03:47;;;;;;;0.30;0.30;;;11.50;92.80;;;;;;5062938;28;20033;-82
2023/05/15 00:06:13;;;;;;;0.25;0.25;;;11.40;93.00;;;;;;5054671;28;20558;-82
2023/05/15 00:08:39;;;;;;;0.40;0.40;;;11.40;93.30;;;;;;5040985;28;20032;-82
2023/05/15 00:11:04;;;;;;;0.43;0.43;;;11.40;93.30;;;;;;5040098;28;20036;-82
2023/05/15 00:13:30;;;;;;;0.30;0.30;;;11.20;93.50;;;;;;5054997;28;20031;-82
2023/05/15 00:15:56;;;;;;;1.03;0.60;;;11.30;93.50;;;;;;5052395;28;20070;-81
2023/05/15 00:18:22;;;;;;;0.20;0.20;;;11.40;93.40;;;;;;5056231;28;20667;-81
2023/05/15 00:20:47;;;;;;;0.20;0.20;;;11.30;93.40;;;;;;5032195;28;20029;-82
2023/05/15 00:23:13;;;;;;;3.10;1.33;;;11.40;93.30;;;;;;5054846;28;20032;-82
2023/05/15 00:25:39;;;;;;;0.52;0.30;;;11.40;93.40;;;;;;5056131;28;20021;-82
2023/05/15 00:28:05;;;;;;;0.57;0.57;;;11.40;93.40;;;;;;5061087;28;20130;-83
2023/05/15 00:30:30;;;;;;;0.52;0.52;;;11.30;93.50;;;;;;5047267;28;20029;-84
2023/05/15 00:32:56;;;;;;;0.55;0.55;;;11.20;93.80;;;;;;5051500;28;20107;-84
2023/05/15 00:35:22;;;;;;;0.88;0.88;;;11.10;94.10;;;;;;5047583;28;20104;-84
2023/05/15 00:37:47;;;;;;;0.65;0.65;;;10.80;94.60;;;;;;5054913;28;20107;-83
2023/05/15 00:40:21;;;;;;;1.08;1.08;;;10.80;94.60;;;;;;5061095;28;20052;-83
2023/05/15 00:42:47;;;;;;;0.10;0.10;;;10.80;94.50;;;;;;5061316;28;20436;-84
2023/05/15 00:45:16;;;;;;;0.68;0.68;;;10.80;94.60;;;;;;5050254;28;20070;-84
2023/05/15 00:47:42;;;;;;;0.38;0.38;;;10.70;94.70;;;;;;5062711;28;20052;-83
2023/05/15 00:50:08;;;;;;;0.45;0.45;;;10.60;95.00;;;;;;5056047;28;20044;-83
2023/05/15 00:52:35;;;;;;;0.35;0.35;;;10.60;95.30;;;;;;5056159;28;20031;-83
2023/05/15 00:55:02;;;;;;;0.77;0.77;;;10.60;95.20;;;;;;5035589;28;20479;-82
2023/05/15 00:57:29;;;;;;;1.13;0.70;;;10.70;95.10;;;;;;5037510;28;20032;-82
2023/05/15 00:59:56;;;;;;;0.40;0.40;;;10.80;95.10;;;;;;5056281;28;20048;-84
2023/05/15 01:02:21;;;;;;;2.17;0.93;;;10.70;95.00;;;;;;5038306;28;20028;-82
2023/05/15 01:04:48;;;;;;;0.38;0.38;;;10.80;95.10;;;;;;5053891;28;20033;-82
2023/05/15 01:07:14;;;;;;;0.63;0.63;;;10.70;95.10;;;;;;5057334;28;20133;-81
2023/05/15 01:09:42;;;;;;;0.70;0.70;;;10.60;95.40;;;;;;5061200;28;20031;-84
2023/05/15 01:12:10;;;;;;;1.50;0.40;;;10.70;95.50;;;;;;5053337;28;20367;-81
2023/05/15 01:14:36;;;;;;;0.40;0.40;;;10.70;95.60;;;;;;5058737;28;20095;-83
2023/05/15 01:17:02;;;;;;;1.45;0.95;;;10.60;95.70;;;;;;5061478;28;20108;-82
2023/05/15 01:19:28;;;;;;;1.55;1.45;;;10.60;95.80;;;;;;5050606;28;20021;-82
2023/05/15 01:22:19;;;;;;;0.98;0.98;;;10.60;95.90;;;;;;5056642;28;20492;-83
2023/05/15 01:25:02;;;;;;;0.68;0.68;;;10.50;96.10;;;;;;5044857;28;20076;-83
2023/05/15 01:27:42;;;;;;;0.20;0.20;;;10.40;96.00;;;;;;5065168;28;20020;-83
2023/05/15 01:30:13;;;;;;;0.25;0.25;;;10.20;96.30;;;;;;5060584;28;20033;-82
2023/05/15 01:32:58;;;;;;;0.85;0.85;;;10.30;96.20;;;;;;5056272;28;20471;-82
2023/05/15 01:35:23;;;;;;;0.28;0.28;;;10.30;96.30;;;;;;5056024;28;20032;-81
2023/05/15 01:37:57;;;;;;;0.55;0.55;;;10.30;96.50;;;;;;5061985;28;20434;-83
2023/05/15 01:40:25;;;;;;;0.30;0.30;;;10.30;96.60;;;;;;5060395;28;20021;-82
2023/05/15 01:42:54;;;;;;;1.05;1.05;;;10.30;96.90;;;;;;5063282;28;20040;-82
2023/05/15 01:45:23;;;;;;;0.93;0.90;;;10.40;97.00;;;;;;5061863;28;20029;-81
2023/05/15 01:47:52;;;;;;;0.50;0.50;;;10.40;97.00;;;;;;5056877;28;20521;-82
2023/05/15 01:50:19;;;;;;;1.17;0.50;;;10.40;97.00;;;;;;5016153;28;20049;-81
2023/05/15 01:52:52;;;;;;;1.15;1.10;;;10.40;97.20;;;;;;5012956;28;20030;-82
2023/05/15 01:55:20;;;;;;;1.25;0.50;;;10.30;97.50;;;;;;5022098;28;20040;-82
2023/05/15 01:57:47;;;;;;;1.75;1.48;;;10.30;97.60;;;;;;5020243;28;20064;-82
2023/05/15 02:00:13;;;;;;;0.60;0.60;;;10.30;97.50;;;;;;5005610;28;20036;-81
2023/05/15 02:02:41;;;;;;;0.55;0.55;;;10.30;97.50;;;;;;5007676;28;20869;-81
2023/05/15 02:05:07;;;;;;;0.30;0.30;;;10.30;97.60;;;;;;5012947;28;20044;-81
2023/05/15 02:07:34;;;;;;;0.90;0.90;;;10.20;97.80;;;;;;5019800;28;20077;-81
2023/05/15 02:10:01;;;;;;;0.30;0.30;;;10.20;97.80;;;;;;5017667;28;20021;-81
2023/05/15 02:12:28;;;;;;;1.40;0.90;;;10.20;97.80;;;;;;5011985;28;20026;-81
2023/05/15 02:14:56;;;;;;;0.85;0.85;;;10.20;97.80;;;;;;5019454;28;20107;-81
2023/05/15 02:17:22;;;;;;;0.52;0.52;;;10.20;98.10;;;;;;5023848;28;20046;-82
2023/05/15 02:19:49;;;;;;;0.52;0.52;;;10.10;98.20;;;;;;5023679;28;20026;-81
2023/05/15 02:22:14;;;;;;;0.63;0.63;;;10.00;98.40;;;;;;5018679;28;20096;-81
2023/05/15 02:24:40;;;;;;;2.45;1.15;;;10.00;98.30;;;;;;5015695;28;20842;-81
2023/05/15 02:27:16;;;;;;;1.48;1.38;;;10.00;98.30;;;;;;5018341;28;20052;-82
2023/05/15 02:30:10;;;;;;;0.40;0.40;;;10.10;98.30;;;;;;5021983;28;20076;-82
2023/05/15 02:32:57;;;;;;;0.93;0.93;;;10.00;98.40;;;;;;5011239;28;20030;-82
2023/05/15 02:35:31;;;;;;;6.13;1.35;;;10.00;98.40;;;;;;5015878;28;20034;-82
2023/05/15 02:38:02;;;;;;;0.88;0.88;;;9.90;99.10;;;;;;5010912;28;20021;-84
2023/05/15 02:40:29;;;;;;;0.43;0.43;;;9.90;98.90;;;;;;5016694;28;20022;-83
2023/05/15 02:42:55;;;;;;;;;;;10.00;99.90;;;;;;5024058;28;20021;-84
2023/05/15 02:45:22;;;;;;;;;;;9.90;99.80;;;;;;5015444;28;19979;-82
2023/05/15 02:47:50;;;;;;;0.30;0.30;;;9.60;99.90;;;;;;5022534;28;19913;-82
2023/05/15 02:50:16;;;;;;;1.33;1.23;;;9.40;99.90;;;;;;5018801;28;20394;-83
2023/05/15 02:52:42;;;;;;;0.40;0.40;;;9.40;99.90;;;;;;5021776;28;20065;-81
2023/05/15 02:55:08;;;;;;;0.32;0.32;;;9.40;99.90;;;;;;5012743;28;20603;-82
2023/05/15 02:57:34;;;;;;;0.52;0.52;;;9.30;99.90;;;;;;5023282;28;20037;-82
2023/05/15 03:00:00;;;;;;;0.50;0.50;;;9.40;99.90;;;;;;5012567;28;20564;-83
2023/05/15 03:02:26;;;;;;;0.45;0.45;;;9.30;99.90;;;;;;5017693;28;20048;-83
2023/05/15 03:04:52;;;;;;;0.50;0.50;;;9.40;99.90;;;;;;5011218;28;20026;-83
2023/05/15 03:07:18;;;;;;;0.85;0.85;;;9.40;99.90;;;;;;5020543;28;20766;-83
2023/05/15 03:09:44;;;;;;;0.85;0.85;;;9.40;99.90;;;;;;5017066;28;20028;-82
2023/05/15 03:12:10;;;;;;;0.60;0.60;;;9.30;99.90;;;;;;5018181;28;20026;-83
2023/05/15 03:14:36;;;;;;;0.95;0.95;;;9.50;99.90;;;;;;5018718;28;20025;-82
2023/05/15 03:17:02;;;;;;;0.47;0.47;;;9.50;99.90;;;;;;5022692;28;20033;-83
2023/05/15 03:19:27;;;;;;;1.00;0.80;;;9.50;99.90;;;;;;5021744;28;20026;-83
2023/05/15 03:21:53;;;;;;;0.95;0.95;;;9.50;99.90;;;;;;5022421;28;20052;-83
2023/05/15 03:24:20;;;;;;;0.30;0.30;;;9.30;99.90;;;;;;5022536;28;20028;-82
2023/05/15 03:26:46;;;;;;;1.27;1.17;;;9.20;99.90;;;;;;5022036;28;20511;-83
2023/05/15 03:29:12;;;;;;;0.47;0.47;;;9.20;99.90;;;;;;5020901;28;20833;-83
2023/05/15 03:31:37;;;;;;;0.60;0.60;;;9.10;99.90;;;;;;5020193;28;20056;-82
2023/05/15 03:34:03;;;;;;;1.20;1.00;;;9.00;99.90;;;;;;5017271;28;20056;-83
2023/05/15 03:36:29;;;;;;;1.02;0.98;;;9.00;99.90;;;;;;5014177;28;20049;-83
2023/05/15 03:38:54;;;;;;;0.10;0.10;;;9.00;99.90;;;;;;5015625;28;20033;-83
2023/05/15 03:41:21;;;;;;;1.27;1.17;;;9.00;99.90;;;;;;5008676;28;20042;-84
2023/05/15 03:43:46;;;;;;;0.40;0.40;;;8.80;99.90;;;;;;5015340;28;20148;-83
2023/05/15 03:46:12;;;;;;;1.38;1.27;;;8.80;99.90;;;;;;5021610;28;20465;-83
2023/05/15 03:48:38;;;;;;;0.77;0.50;;;8.80;99.90;;;;;;5021751;28;20030;-83
2023/05/15 03:51:03;;;;;;;0.63;0.63;;;8.80;99.90;;;;;;5050946;28;20044;-82
2023/05/15 03:53:29;;;;;;;0.40;0.40;;;8.90;99.90;;;;;;5048448;28;20476;-82
2023/05/15 03:55:55;;;;;;;0.28;0.28;;;9.00;99.90;;;;;;5064436;28;20067;-83
2023/05/15 03:58:21;;;;;;;0.82;0.82;;;8.90;99.90;;;;;;5056115;28;20109;-83
2023/05/15 04:00:47;;;;;;;0.25;0.25;;;8.90;99.90;;;;;;5056669;28;20107;-83
2023/05/15 04:03:13;;;;;;;0.98;0.98;;;8.90;99.90;;;;;;5054892;28;20190;-82
2023/05/15 04:05:39;;;;;;;0.35;0.35;;;8.90;99.90;;;;;;5054562;28;20509;-82
2023/05/15 04:08:05;;;;;;;1.20;1.15;;;8.80;99.90;;;;;;5055317;28;20032;-84
2023/05/15 04:10:32;;;;;;;0.50;0.50;;;8.80;99.90;;;;;;5057727;28;20027;-83
2023/05/15 04:12:58;;;;;;;0.38;0.38;;;8.70;99.90;;;;;;5061095;28;20920;-82
2023/05/15 04:15:27;;;;;;;0.70;0.70;;;8.70;99.90;;;;;;5044319;28;20040;-82
2023/05/15 04:17:53;;;;;;;0.55;0.55;;;8.50;99.90;;;;;;5048246;28;20051;-82
2023/05/15 04:20:21;;;;;;;1.23;0.57;;;8.40;99.90;;;;;;5059876;28;20606;-83
2023/05/15 04:22:47;;;;;;;2.92;0.57;;;8.30;99.90;;;;;;5059024;28;20064;-83
2023/05/15 04:25:13;;;;;;;0.53;0.53;;;8.30;99.90;;;;;;5059877;28;20179;-82
2023/05/15 04:27:40;;;;;;;1.52;0.75;;;8.20;99.90;;;;;;5062033;28;20073;-83
2023/05/15 04:30:07;;;;;;;0.82;0.82;;;8.20;99.90;;;;;;5061594;28;20039;-84
2023/05/15 04:32:34;;;;;;;0.70;0.70;;;8.10;99.90;;;;;;5051929;28;20024;-83
2023/05/15 04:35:11;;;;;;;1.25;0.90;;;8.10;99.90;;;;;;5058606;28;20029;-82
2023/05/15 04:37:37;;;;;;;1.55;0.88;;;8.10;99.90;;;;;;5059662;28;20024;-83
2023/05/15 04:40:05;;;;;;;0.88;0.75;;;8.10;99.90;;;;;;5061120;28;20036;-83
2023/05/15 04:42:31;;;;;;;0.43;0.43;;;8.30;99.90;;;;;;5059282;28;20512;-83
2023/05/15 04:44:56;;;;;;;0.77;0.77;;;8.40;99.90;;;;;;5035006;28;20060;-83
2023/05/15 04:47:22;;;;;;;0.65;0.55;;;8.70;99.90;;;;;;5053082;28;20115;-83
2023/05/15 04:49:49;;;;;;;0.60;0.60;;;8.80;99.90;;;;;;5051578;28;20671;-84
2023/05/15 04:52:15;;;;;;;0.32;0.32;;;8.80;99.90;;;;;;5062149;28;20024;-84
2023/05/15 04:54:41;;;;;;;1.27;1.27;;;8.90;99.90;;;;;;5061637;28;20777;-85
2023/05/15 04:57:07;;;;;;;0.55;0.52;;;9.10;99.90;;;;;;5056822;28;20028;-83
2023/05/15 04:59:33;;;;;;;0.63;0.63;;;9.80;99.90;;;;;;5051853;28;20216;-82
2023/05/15 05:01:59;;;;;;;4.38;0.95;;;10.30;98.40;;;;;;5051248;28;20610;-81
2023/05/15 05:04:25;;;;;;;0.97;0.97;;;10.40;97.80;;;;;;5043046;28;20024;-83
2023/05/15 05:06:51;;;;;;;0.70;0.70;;;10.40;97.70;;;;;;5052811;28;20406;-82
2023/05/15 05:09:18;;;;;;;0.20;0.20;;;10.20;97.50;;;;;;5053085;28;20029;-85
2023/05/15 05:11:45;;;;;;;0.63;0.63;;;10.00;98.10;;;;;;5042115;28;20120;-83
2023/05/15 05:14:12;;;;;;;2.47;1.17;;;9.90;98.60;;;;;;5030425;28;20601;-83
2023/05/15 05:16:38;;;;;;;;;;;9.80;99.10;;;;;;5047499;28;20032;-84
2023/05/15 05:19:04;;;;;;;0.57;0.57;;;9.80;99.10;;;;;;5052407;28;19919;-83
2023/05/15 05:21:30;;;;;;;0.47;0.47;;;9.90;99.10;;;;;;5030405;28;20420;-83
2023/05/15 05:23:56;;;;;;;0.63;0.63;;;9.70;99.50;;;;;;5044109;28;20063;-83
2023/05/15 05:26:22;;;;;;;0.75;0.75;;;9.60;99.80;;;;;;5026317;28;20108;-87
2023/05/15 05:28:47;;;;;;;0.25;0.25;;;9.50;99.90;;;;;;5042033;28;20040;-85
2023/05/15 05:31:14;;;;;;;0.57;0.57;;;9.60;99.90;;;;;;5047739;28;20550;-86
2023/05/15 05:33:39;;;;;;;0.50;0.50;;;9.60;99.80;;;;;;5043630;28;20029;-86
2023/05/15 05:36:06;;;;;;;0.38;0.38;;;9.50;99.90;;;;;;5051572;28;20033;-87
2023/05/15 05:38:32;;;;;;;1.40;1.27;;;9.50;99.90;;;;;;5041196;28;20091;-86
2023/05/15 05:40:57;;;;;;;0.27;0.27;;;9.30;99.90;;;;;;5048130;28;20064;-86
2023/05/15 05:43:26;;;;;;;0.77;0.63;;;9.20;99.90;;;;;;5048452;28;20408;-86
2023/05/15 05:45:52;;;;;;;0.38;0.38;;;9.30;99.90;;;;;;5041533;28;20033;-87
2023/05/15 05:48:18;;;;;;;0.93;0.93;;;9.40;99.90;;;;;;5043551;28;20396;-84
2023/05/15 05:50:43;;;;;;;0.50;0.50;;;9.30;99.90;;;;;;5053693;28;20053;-85
2023/05/15 05:53:09;;;;;;;1.35;0.98;;;9.30;99.90;;;;;;5043904;28;20087;-85
2023/05/15 05:55:35;;;;;;;0.45;0.45;;;9.40;99.90;;;;;;5043098;28;20508;-86
2023/05/15 05:58:01;;;;;;;1.23;1.02;;;9.50;99.90;;;;;;5059898;28;20740;-85
2023/05/15 06:00:27;;;;;;;0.20;0.20;;;9.40;99.90;;;;;;5053534;28;20536;-85
2023/05/15 06:02:57;;;;;;;1.38;1.30;;;9.50;99.90;;;;;;5045877;28;20357;-84
2023/05/15 06:05:26;;;;;;;0.68;0.68;;;9.70;99.90;;;;;;5036883;28;20056;-84
2023/05/15 06:07:52;;;;;;;0.70;0.70;;;9.90;99.90;;;;;;5052616;28;20502;-84
2023/05/15 06:10:18;;;;;;;0.27;0.27;;;9.90;99.50;;;;;;5047087;28;20050;-84
2023/05/15 06:12:44;;;;;;;0.30;0.30;;;10.10;99.30;;;;;;5053492;28;20021;-82
2023/05/15 06:15:11;;;;;;;0.47;0.47;;;10.40;98.60;;;;;;5057314;28;20048;-84
2023/05/15 06:17:37;;;;;;;0.70;0.70;;;10.70;97.90;;;;;;5044665;28;20404;-84
2023/05/15 06:20:10;;;;;;;0.32;0.32;;;11.10;97.30;;;;;;5044801;28;20029;-86
2023/05/15 06:22:36;;;;;;;0.80;0.80;;;11.50;97.30;;;;;;5053136;28;20446;-84
2023/05/15 06:25:04;;;;;;;0.43;0.43;;;11.90;96.40;;;;;;5029571;28;20817;-87
2023/05/15 06:27:30;;;;;;;0.45;0.45;;;12.10;95.40;;;;;;5044900;28;20033;-87
2023/05/15 06:29:56;;;;;;;0.30;0.30;;;12.00;94.60;;;;;;5054219;28;20518;-87
2023/05/15 06:32:22;;;;;;;0.97;0.97;;;12.00;94.90;;;;;;5046424;28;20029;-89
2023/05/15 06:34:47;;;;;;;1.60;0.73;;;11.80;95.60;;;;;;5053384;28;20580;-87
2023/05/15 06:37:13;;;;;;;1.75;1.30;;;11.90;95.50;;;;;;5058755;28;20060;-84
2023/05/15 06:39:39;;;;;;;0.43;0.43;;;12.30;95.00;;;;;;5026713;28;20044;-88
2023/05/15 06:42:05;;;;;;;0.70;0.70;;;12.10;95.30;;;;;;5045140;28;20113;-86
2023/05/15 06:44:31;;;;;;;0.47;0.47;;;11.80;96.10;;;;;;5046851;28;20488;-86
2023/05/15 06:46:57;;;;;;;2.58;1.08;;;11.70;96.80;;;;;;5048517;28;20048;-89
2023/05/15 06:49:24;;;;;;;0.68;0.68;;;11.50;97.80;;;;;;5046679;28;20830;-88
2023/05/15 06:51:50;;;;;;;1.33;1.27;;;11.20;98.60;;;;;;5050784;28;20140;-86
2023/05/15 06:54:16;;;;;;;0.20;0.20;;;10.90;99.30;;;;;;5052847;28;20035;-86
2023/05/15 06:56:41;;;;;;;0.25;0.25;;;10.80;99.70;;;;;;5047654;28;20033;-87
2023/05/15 06:59:07;;;;;;;0.27;0.27;;;10.90;99.70;;;;;;5035507;28;20025;-88
2023/05/15 07:01:33;;;;;;;0.20;0.20;;;10.90;99.30;;;;;;5047676;28;20044;-87
2023/05/15 07:03:58;;;;;;;0.70;0.65;;;10.90;99.60;;;;;;5055888;28;20110;-85
2023/05/15 07:06:25;;;;;;;0.22;0.22;;;10.90;99.90;;;;;;5028291;28;20032;-86
2023/05/15 07:08:51;;;;;;;0.32;0.32;;;10.90;99.90;;;;;;5051322;28;20016;-86
2023/05/15 07:11:17;;;;;;;0.28;0.28;;;11.00;99.90;;;;;;5051997;28;20037;-87
2023/05/15 07:13:42;;;;;;;0.45;0.45;;;11.10;99.70;;;;;;5062287;28;20781;-86
2023/05/15 07:16:08;;;;;;;0.43;0.43;;;11.00;99.70;;;;;;5060756;28;20104;-85
2023/05/15 07:18:34;;;;;;;0.73;0.73;;;10.90;99.90;;;;;;5046086;28;20028;-86
2023/05/15 07:21:00;;;;;;;2.47;1.05;;;10.90;99.90;;;;;;5061079;28;20120;-85
2023/05/15 07:23:26;;;;;;;1.02;0.93;;;11.00;99.90;;;;;;5060496;28;20129;-85
2023/05/15 07:25:54;;;;;;;0.40;0.40;;;11.10;99.90;;;;;;5057726;28;20048;-87
2023/05/15 07:28:20;;;;;;;1.95;1.13;;;11.30;99.90;;;;;;5063393;28;20132;-87
2023/05/15 07:30:46;;;;;;;0.35;0.35;;;11.50;99.80;;;;;;5059418;28;20031;-86
2023/05/15 07:33:12;;;;;;;0.43;0.43;;;11.80;99.90;;;;;;5063280;28;20070;-87
2023/05/15 07:35:37;;;;;;;0.47;0.47;;;12.20;99.50;;;;;;5060018;28;20021;-87
2023/05/15 07:38:03;;;;;;;0.68;0.68;;;12.60;98.20;;;;;;5037099;28;20033;-86
2023/05/15 07:40:30;;;;;;;0.50;0.47;;;13.20;97.00;;;;;;5058666;28;20044;-85
2023/05/15 07:42:55;;;;;;;0.82;0.82;;;13.80;95.60;;;;;;5061044;28;20093;-88
2023/05/15 07:45:21;;;;;;;0.45;0.40;;;15.30;94.30;;;;;;5056419;28;20025;-88
2023/05/15 07:47:48;;;;;;;0.73;0.73;;;16.30;90.90;;;;;;5060257;28;20028;-87
2023/05/15 07:50:14;;;;;;;0.68;0.68;;;16.00;90.70;;;;;;5029090;28;20130;-85
2023/05/15 07:52:40;;;;;;;0.43;0.43;;;17.90;86.40;;;;;;5019097;28;20521;-87
2023/05/15 07:55:07;;;;;;;1.08;1.05;;;20.60;78.40;;;;;;5012023;28;20602;-88
2023/05/15 07:57:32;;;;;;;0.43;0.43;;;22.10;70.20;;;;;;5018627;28;20033;-89
2023/05/15 07:59:58;;;;;;;0.57;0.50;;;22.50;67.50;;;;;;5017782;28;20033;-87
2023/05/15 08:02:24;;;;;;;0.23;0.23;;;22.80;65.70;;;;;;5018744;28;20037;-86
2023/05/15 08:04:50;;;;;;;0.20;0.20;;;22.80;65.40;;;;;;5011220;28;20053;-88
2023/05/15 08:07:19;;;;;;;0.73;0.47;;;22.20;64.40;;;;;;5016323;28;20128;-86
2023/05/15 08:09:45;;;;;;;0.00;0.00;;;23.60;61.50;;;;;;5014465;28;20562;-87
2023/05/15 08:12:23;;;;;;;0.60;0.60;;;24.80;60.20;;;;;;5022766;28;20029;-87
2023/05/15 08:14:50;;;;;;;1.77;0.88;;;25.30;60.40;;;;;;5022484;28;20017;-86
2023/05/15 08:17:15;;;;;;;1.50;0.95;;;25.20;60.40;;;;;;5022046;28;20030;-86
2023/05/15 08:19:41;;;;;;;0.38;0.38;;;20.80;68.80;;;;;;5020263;28;20049;-86
2023/05/15 08:22:07;;;;;;;0.93;0.93;;;18.90;74.50;;;;;;5021236;28;20041;-86
2023/05/15 08:24:33;;;;;;;1.00;0.93;;;18.70;76.20;;;;;;5020213;28;20396;-86
2023/05/15 08:26:59;;;;;;;0.38;0.38;;;18.70;77.70;;;;;;5020907;28;20639;-85
2023/05/15 08:29:25;;;;;;;1.43;0.97;;;21.30;73.10;;;;;;5022691;28;20030;-86
2023/05/15 08:31:51;;;;;;;0.50;0.50;;;24.00;67.30;;;;;;5022348;28;20032;-85
2023/05/15 08:34:16;;;;;;;0.63;0.63;;;25.80;60.50;;;;;;5020554;28;20256;-86
2023/05/15 08:36:43;;;;;;;0.47;0.47;;;27.10;59.30;;;;;;5019066;28;20072;-86
2023/05/15 08:39:09;;;;;;;0.22;0.22;;;26.50;55.50;;;;;;5019557;28;20792;-86
2023/05/15 08:41:47;;;;;;;0.30;0.30;;;26.40;56.50;;;;;;5019086;28;20069;-85
2023/05/15 08:44:13;;;;;;;0.30;0.30;;;27.20;55.20;;;;;;5018265;28;20045;-87
2023/05/15 08:46:39;;;;;;;0.10;0.10;;;28.00;55.10;;;;;;5012492;28;20034;-86
2023/05/15 08:49:24;;;;;;;0.03;0.03;;;27.50;54.60;;;;;;5014945;28;20056;-86
2023/05/15 08:51:50;;;;;;;0.20;0.20;;;28.50;51.80;;;;;;5005112;28;20038;-86
2023/05/15 08:54:16;;;;;;;;;;;29.10;51.50;;;;;;5007787;28;20121;-86
2023/05/15 08:56:42;;;;;;;0.47;0.47;;;27.00;53.90;;;;;;5011520;28;20353;-86
2023/05/15 08:59:08;;;;;;;;;;;26.70;55.80;;;;;;5006391;28;20030;-86
2023/05/15 09:01:35;;;;;;;0.38;0.38;;;27.10;53.20;;;;;;5008915;28;20495;-86
2023/05/15 09:04:01;;;;;;;1.13;0.85;;;26.50;54.10;;;;;;5007110;28;20060;-86
2023/05/15 09:06:27;;;;;;;1.48;1.38;;;28.20;53.30;;;;;;5004738;28;20025;-86
2023/05/15 09:08:55;;;;;;;;;;;28.40;52.50;;;;;;5015965;28;20473;-88
2023/05/15 09:11:23;;;;;;;0.63;0.63;;;27.40;53.90;;;;;;5004648;28;20020;-88
2023/05/15 09:13:49;;;;;;;2.15;0.85;;;28.60;52.50;;;;;;5006203;28;20036;-87
2023/05/15 09:16:15;;;;;;;1.27;0.38;;;29.90;50.70;;;;;;5008946;28;20109;-86
2023/05/15 09:18:41;;;;;;;0.85;0.57;;;30.60;50.40;;;;;;5020778;28;20033;-87
2023/05/15 09:21:26;;;;;;;;;;;29.50;50.00;;;;;;5006263;28;20037;-87
2023/05/15 09:23:54;;;;;;;0.50;0.50;;;27.50;52.90;;;;;;5003080;28;19916;-87
2023/05/15 09:26:20;;;;;;;1.00;0.65;;;27.90;51.90;;;;;;5003400;28;20457;-87
2023/05/15 09:28:47;;;;;;;0.90;0.60;;;27.50;53.30;;;;;;5003034;28;20029;-88
2023/05/15 09:31:13;;;;;;;1.23;1.13;;;27.50;54.70;;;;;;5016196;28;20513;-89
2023/05/15 09:33:41;;;;;;;0.30;0.30;;;25.00;57.60;;;;;;5009124;28;20152;-88
2023/05/15 09:36:08;;;;;;;0.65;0.65;;;23.60;61.40;;;;;;5009872;28;20025;-88
2023/05/15 09:38:46;;;;;;;0.13;0.13;;;22.00;64.60;;;;;;5015728;28;20026;-88
2023/05/15 09:41:12;;;;;;;1.73;1.33;;;24.40;64.10;;;;;;5009328;28;20551;-89
2023/05/15 09:43:39;;;;;;;0.43;0.43;;;27.30;56.10;;;;;;5012640;28;20025;-87
2023/05/15 09:46:07;;;;;;;0.45;0.45;;;26.10;56.50;;;;;;5010889;28;20684;-86
2023/05/15 09:48:34;;;;;;;0.17;0.17;;;27.30;55.00;;;;;;5015203;28;20026;-87
2023/05/15 09:51:01;;;;;;;0.65;0.65;;;27.40;56.20;;;;;;5040100;28;20052;-87
2023/05/15 09:53:27;;;;;;;0.45;0.45;;;28.10;52.90;;;;;;5056098;28;20024;-87
2023/05/15 09:55:53;;;;;;;0.30;0.30;;;26.10;54.20;;;;;;5059569;28;20047;-87
2023/05/15 09:58:19;;;;;;;1.25;1.15;;;28.90;54.60;;;;;;5036278;28;20036;-87
2023/05/15 10:00:46;;;;;;;0.50;0.50;;;27.90;55.30;;;;;;5060981;28;20064;-87
2023/05/15 10:03:12;;;;;;;0.30;0.30;;;28.80;51.30;;;;;;5055597;28;20045;-87
2023/05/15 10:05:38;;;;;;;0.80;0.80;;;27.40;53.50;;;;;;5060474;28;20024;-88
2023/05/15 10:08:05;;;;;;;0.57;0.57;;;28.20;54.00;;;;;;5059588;28;20021;-85
2023/05/15 10:10:31;;;;;;;;;;;29.10;54.50;;;;;;5060690;28;20027;-86
2023/05/15 10:13:02;;;;;;;2.20;0.65;;;29.90;53.20;;;;;;5045833;28;19908;-86
2023/05/15 10:15:28;;;;;;;0.50;0.50;;;29.80;51.60;;;;;;5064307;28;20024;-88
2023/05/15 10:17:54;;;;;;;1.02;1.02;;;29.60;50.60;;;;;;5062358;28;20695;-89
2023/05/15 10:20:22;;;;;;;0.55;0.55;;;29.10;51.60;;;;;;5063463;28;20112;-88
2023/05/15 10:22:50;;;;;;;0.68;0.68;;;30.00;51.80;;;;;;5060355;28;20135;-87
2023/05/15 10:25:27;;;;;;;0.73;0.73;;;25.50;56.90;;;;;;5062082;28;20012;-86
2023/05/15 10:27:53;;;;;;;1.13;1.08;;;25.80;57.40;;;;;;5064650;28;20031;-88
2023/05/15 10:30:20;;;;;;;0.68;0.68;;;24.70;60.50;;;;;;5045623;28;20059;-87
2023/05/15 10:32:48;;;;;;;0.57;0.57;;;23.70;61.90;;;;;;5063714;28;20853;-87
2023/05/15 10:35:15;;;;;;;0.98;0.98;;;23.40;63.80;;;;;;5059818;28;20025;-87
2023/05/15 10:37:41;;;;;;;1.30;1.23;;;23.00;63.00;;;;;;5042355;28;20040;-86
2023/05/15 10:40:09;;;;;;;1.40;1.30;;;22.60;65.60;;;;;;5057874;28;20561;-87
2023/05/15 10:42:42;;;;;;;0.95;0.85;;;22.50;68.10;;;;;;5043962;28;20040;-87
2023/05/15 10:45:09;;;;;;;0.60;0.55;;;23.30;64.10;;;;;;5061975;28;20020;-89
2023/05/15 10:47:37;;;;;;;1.00;1.00;;;23.70;61.90;;;;;;5059913;28;20564;-87
2023/05/15 10:50:04;;;;;;;2.42;2.08;;;23.50;63.70;;;;;;5061164;28;20052;-85
2023/05/15 10:52:32;;;;;;;0.55;0.55;;;22.90;62.30;;;;;;5060670;28;20940;-86
2023/05/15 10:54:58;;;;;;;0.98;0.90;;;23.30;64.70;;;;;;5056378;28;20061;-89
2023/05/15 10:57:24;;;;;;;;;;;22.90;63.70;;;;;;5054489;28;20060;-86
2023/05/15 10:59:50;;;;;;;0.47;0.47;;;21.60;65.40;;;;;;5057766;28;20473;-86
2023/05/15 11:02:25;;;;;;;0.87;0.87;;;21.70;65.10;;;;;;5043468;28;20044;-86
2023/05/15 11:04:59;;;;;;;0.38;0.38;;;21.50;65.70;;;;;;5053010;28;20036;-86
2023/05/15 11:07:25;;;;;;;0.70;0.70;;;22.60;65.20;;;;;;5042311;28;20862;-86
2023/05/15 11:09:54;;;;;;;2.63;1.17;;;23.40;63.50;;;;;;5055712;28;20051;-86
2023/05/15 11:12:21;;;;;;;0.28;0.28;;;23.10;62.30;;;;;;5064344;28;20028;-86
2023/05/15 11:14:56;;;;;;;2.72;0.63;;;22.80;63.00;;;;;;5045184;28;20029;-86
2023/05/15 11:17:25;;;;;;;0.95;0.38;;;23.50;61.20;;;;;;5062940;28;20036;-86
2023/05/15 11:19:51;;;;;;;0.28;0.28;;;23.20;61.60;;;;;;5054216;28;20410;-85
2023/05/15 11:22:34;;;;;;;0.40;0.40;;;22.60;63.80;;;;;;5044383;28;20548;-86
2023/05/15 11:25:09;;;;;;;0.30;0.30;;;23.10;64.90;;;;;;5051266;28;20582;-88
2023/05/15 11:27:38;;;;;;;1.00;1.00;;;23.60;65.20;;;;;;5063442;28;20088;-86
2023/05/15 11:30:21;;;;;;;0.30;0.30;;;22.80;63.60;;;;;;5045041;28;20506;-87
2023/05/15 11:32:46;;;;;;;0.65;0.47;;;23.00;64.40;;;;;;5060017;28;20056;-86
2023/05/15 11:35:25;;;;;;;0.40;0.40;;;22.80;62.80;;;;;;5055728;28;20564;-89
2023/05/15 11:37:55;;;;;;;0.25;0.25;;;22.20;60.80;;;;;;5059708;28;20071;-87
2023/05/15 11:40:24;;;;;;;0.55;0.32;;;22.20;60.30;;;;;;5059487;28;20067;-86
2023/05/15 11:43:02;;;;;;;0.57;0.57;;;22.10;59.10;;;;;;5046090;28;20054;-88
2023/05/15 11:45:39;;;;;;;0.63;0.63;;;22.30;57.60;;;;;;5060020;28;20059;-88
2023/05/15 11:48:06;;;;;;;1.00;0.93;;;22.60;60.00;;;;;;5056806;28;20039;-86
2023/05/15 11:50:34;;;;;;;2.47;0.52;;;22.10;59.60;;;;;;5057130;28;20135;-87
2023/05/15 11:53:07;;;;;;;0.45;0.45;;;21.90;58.60;;;;;;5056641;28;20031;-87
2023/05/15 11:55:35;;;;;;;0.20;0.20;;;21.80;60.20;;;;;;5057948;28;20037;-88
2023/05/15 11:58:01;;;;;;;0.75;0.75;;;21.80;61.30;;;;;;5061007;28;20099;-89
2023/05/15 12:00:27;;;;;;;0.85;0.73;;;21.90;59.30;;;;;;5053638;28;20036;-86
2023/05/15 12:02:53;;;;;;;0.77;0.77;;;21.60;63.30;;;;;;5043551;28;20040;-88
2023/05/15 12:05:19;;;;;;;0.47;0.47;;;21.40;60.40;;;;;;5054451;28;20028;-87
2023/05/15 12:07:45;;;;;;;4.83;0.93;;;21.40;61.40;;;;;;5057400;28;20071;-87
2023/05/15 12:10:12;;;;;;;0.85;0.73;;;21.40;63.30;;;;;;5054486;28;20021;-88
2023/05/15 12:12:45;;;;;;;0.35;0.35;;;21.50;62.70;;;;;;5061545;28;20079;-88
2023/05/15 12:15:15;;;;;;;0.30;0.30;;;20.70;60.80;;;;;;5060346;28;20082;-87
2023/05/15 12:17:43;;;;;;;0.40;0.40;;;20.10;61.20;;;;;;5059781;28;20032;-86
2023/05/15 12:20:17;;;;;;;0.32;0.32;;;20.20;62.60;;;;;;5060793;28;20103;-87
2023/05/15 12:22:43;;;;;;;0.77;0.65;;;20.30;61.50;;;;;;5058186;28;20044;-88
2023/05/15 12:25:10;;;;;;;0.40;0.40;;;20.00;61.70;;;;;;5060167;28;20759;-88
2023/05/15 12:27:38;;;;;;;0.70;0.70;;;20.40;63.30;;;;;;5060078;28;20546;-85
2023/05/15 12:30:05;;;;;;;0.70;0.70;;;20.70;64.60;;;;;;5062039;28;20025;-88
2023/05/15 12:32:33;;;;;;;0.35;0.32;;;20.60;64.60;;;;;;5033886;28;20024;-85
2023/05/15 12:35:00;;;;;;;0.47;0.47;;;20.50;63.80;;;;;;5058386;28;20027;-87
2023/05/15 12:37:25;;;;;;;2.30;0.63;;;20.40;63.50;;;;;;5057687;28;20136;-86
2023/05/15 12:39:58;;;;;;;0.40;0.40;;;20.80;65.10;;;;;;5060734;28;20073;-87
2023/05/15 12:42:25;;;;;;;0.22;0.22;;;21.20;66.70;;;;;;5058912;28;20377;-86
2023/05/15 12:44:55;;;;;;;0.13;0.13;;;20.80;61.90;;;;;;5060945;28;20107;-86
2023/05/15 12:47:27;;;;;;;0.45;0.45;;;20.40;58.10;;;;;;5038552;28;20388;-87
2023/05/15 12:49:56;;;;;;;0.52;0.38;;;20.70;62.90;;;;;;5033224;28;20049;-86
2023/05/15 12:52:22;;;;;;;0.50;0.50;;;20.90;63.60;;;;;;5040760;28;20029;-88
2023/05/15 12:54:49;;;;;;;0.40;0.40;;;20.90;57.60;;;;;;5058714;28;20060;-87